createdAt,value
2022-08-25T07:41:24.702Z,11.02
2022-08-25T07:42:22.246Z,11.72
2022-08-25T07:43:19.611Z,12.08
2022-08-25T07:44:17.034Z,11.77
2022-08-25T07:45:15.480Z,11.86
2022-08-25T07:46:15.022Z,11.39
2022-08-25T07:47:12.548Z,11.83
2022-08-25T07:48:11.054Z,11.52
2022-08-25T07:49:16.342Z,11.35
2022-08-25T07:50:14.630Z,11.00
2022-08-25T07:51:14.377Z,11.09
2022-08-25T07:52:11.800Z,11.68
2022-08-25T07:53:10.159Z,11.76
2022-08-25T07:54:08.160Z,10.80
2022-08-25T07:55:08.189Z,11.25
2022-08-25T07:56:12.931Z,10.67
2022-08-25T07:57:10.359Z,10.84
2022-08-25T07:58:09.894Z,11.07
2022-08-25T07:59:12.531Z,11.44
2022-08-25T08:00:11.328Z,11.38
2022-08-25T08:01:14.509Z,11.04
2022-08-25T08:02:18.897Z,11.02
2022-08-25T08:03:35.289Z,10.26
2022-08-25T08:04:36.111Z,10.93
2022-08-25T08:05:34.062Z,10.98
2022-08-25T08:06:32.254Z,10.34
2022-08-25T08:07:42.135Z,10.66
2022-08-25T08:08:44.789Z,10.55
2022-08-25T08:09:42.310Z,10.71
2022-08-25T08:11:02.712Z,10.92
2022-08-25T08:11:58.707Z,10.25
2022-08-25T08:12:56.248Z,11.56
2022-08-25T08:13:54.483Z,10.46
2022-08-25T08:14:52.187Z,10.50
2022-08-25T08:15:49.627Z,10.44
2022-08-25T08:16:47.112Z,10.44
2022-08-25T08:17:44.682Z,10.71
2022-08-25T08:18:43.183Z,10.51
2022-08-25T08:19:44.463Z,11.05
2022-08-25T08:20:43.799Z,10.65
2022-08-25T08:21:41.801Z,9.67
2022-08-25T08:22:41.366Z,10.71
2022-08-25T08:23:38.817Z,10.41
2022-08-25T08:24:44.563Z,10.44
2022-08-25T08:25:51.756Z,10.64
2022-08-25T08:26:58.824Z,10.65
2022-08-25T08:27:56.895Z,10.25
2022-08-25T08:28:54.417Z,10.26
2022-08-25T08:29:54.398Z,10.26
2022-08-25T08:30:53.343Z,10.56
2022-08-25T08:31:51.372Z,10.16
2022-08-25T08:33:08.545Z,9.64
2022-08-25T08:34:06.520Z,9.69
2022-08-25T08:35:07.173Z,9.73
2022-08-25T08:36:08.611Z,9.81
2022-08-25T08:37:07.898Z,9.90
2022-08-25T08:38:14.821Z,9.72
2022-08-25T08:39:13.649Z,10.15
2022-08-25T08:40:14.886Z,9.57
2022-08-25T08:42:09.676Z,9.41
2022-08-25T08:43:18.575Z,9.02
2022-08-25T08:44:20.152Z,9.16
2022-08-25T08:45:26.578Z,9.54
2022-08-25T08:46:30.308Z,9.16
2022-08-25T08:47:52.746Z,9.31
2022-08-25T08:49:00.581Z,9.25
2022-08-25T08:50:23.986Z,9.52
2022-08-25T08:51:32.674Z,8.74
2022-08-25T08:52:43.462Z,8.59
2022-08-25T08:53:46.317Z,8.94
2022-08-25T08:54:47.511Z,8.85
2022-08-25T08:55:59.245Z,8.12
2022-08-25T08:57:03.330Z,8.48
2022-08-25T08:58:03.416Z,8.28
2022-08-25T08:59:13.125Z,8.06
2022-08-25T09:00:10.860Z,8.10
2022-08-25T09:01:10.895Z,8.69
2022-08-25T09:02:16.609Z,8.53
2022-08-25T09:03:42.185Z,7.69
2022-08-25T09:04:54.902Z,7.60
2022-08-25T09:05:56.031Z,7.67
2022-08-25T09:06:53.609Z,7.35
2022-08-25T09:08:04.969Z,7.08
2022-08-25T09:09:06.937Z,7.15
2022-08-25T09:10:05.011Z,6.81
2022-08-25T09:11:10.161Z,6.11
2022-08-25T09:12:23.893Z,5.19
2022-08-25T09:13:39.882Z,5.33
2022-08-25T09:14:38.508Z,5.34
2022-08-25T09:15:54.636Z,5.46
2022-08-25T09:17:01.054Z,5.63
2022-08-25T09:18:13.304Z,5.43
2022-08-25T09:19:12.876Z,5.52
2022-08-25T09:20:19.446Z,5.90
2022-08-25T09:21:34.638Z,6.39
2022-08-25T09:22:58.752Z,5.32
2022-08-25T09:23:56.543Z,6.04
2022-08-25T09:25:08.323Z,5.50
2022-08-25T09:26:21.321Z,5.04
2022-08-25T09:27:19.726Z,5.68
2022-08-25T09:28:17.354Z,5.17
2022-08-25T09:29:20.738Z,5.06
2022-08-25T09:30:19.988Z,5.66
2022-08-25T09:31:31.837Z,5.39
2022-08-25T09:32:32.737Z,4.99
2022-08-25T09:33:33.570Z,5.39
2022-08-25T09:34:34.068Z,5.47
2022-08-25T09:35:33.482Z,5.16
2022-08-25T09:36:37.453Z,5.29
2022-08-25T09:37:35.380Z,5.24
2022-08-25T09:38:32.833Z,5.02
2022-08-25T09:39:30.157Z,5.36
2022-08-25T09:40:30.316Z,5.33
2022-08-25T09:41:48.126Z,5.29
2022-08-25T09:42:50.411Z,4.98
2022-08-25T09:43:54.148Z,5.14
2022-08-25T09:44:52.062Z,5.54
2022-08-25T09:46:10.609Z,4.75
2022-08-25T09:47:20.621Z,5.12
2022-08-25T09:48:26.273Z,5.26
2022-08-25T09:49:31.689Z,5.77
2022-08-25T09:50:34.937Z,5.96
2022-08-25T09:51:38.291Z,5.40
2022-08-25T09:52:42.378Z,5.30
2022-08-25T09:53:48.381Z,4.92
2022-08-25T09:54:47.676Z,4.49
2022-08-25T09:55:48.817Z,4.74
2022-08-25T09:56:57.189Z,4.47
2022-08-25T09:57:56.844Z,4.99
2022-08-25T09:59:03.096Z,5.30
2022-08-25T10:00:30.622Z,4.94
2022-08-25T10:01:28.220Z,5.01
2022-08-25T10:02:32.916Z,5.00
2022-08-25T10:03:31.020Z,4.56
2022-08-25T10:04:37.137Z,5.30
2022-08-25T10:05:38.765Z,4.93
2022-08-25T10:06:47.358Z,4.87
2022-08-25T10:07:51.927Z,4.37
2022-08-25T10:08:49.574Z,4.84
2022-08-25T10:09:52.208Z,4.59
2022-08-25T10:10:54.368Z,4.99
2022-08-25T10:11:57.494Z,5.08
2022-08-25T10:12:58.276Z,4.75
2022-08-25T10:14:03.276Z,5.00
2022-08-25T10:15:15.658Z,4.82
2022-08-25T10:16:34.074Z,4.95
2022-08-25T10:17:33.740Z,4.88
2022-08-25T10:18:32.271Z,4.62
2022-08-25T10:19:30.402Z,5.18
2022-08-25T10:20:30.894Z,5.44
2022-08-25T10:21:33.735Z,5.53
2022-08-25T10:22:34.469Z,5.35
2022-08-25T10:23:34.239Z,4.87
2022-08-25T10:24:32.315Z,4.42
2022-08-25T10:25:33.334Z,4.79
2022-08-25T10:26:50.495Z,4.86
2022-08-25T10:27:52.303Z,5.07
2022-08-25T10:29:12.283Z,4.67
2022-08-25T10:30:16.013Z,5.81
2022-08-25T10:31:13.368Z,5.97
2022-08-25T10:32:28.809Z,6.20
2022-08-25T10:33:32.032Z,5.39
2022-08-25T10:34:32.269Z,5.35
2022-08-25T10:35:39.767Z,5.42
2022-08-25T10:36:49.165Z,5.17
2022-08-25T10:38:05.149Z,5.28
2022-08-25T10:39:03.337Z,5.59
2022-08-25T10:40:12.242Z,5.82
2022-08-25T10:41:18.501Z,5.00
2022-08-25T10:42:18.654Z,5.40
2022-08-25T10:43:41.780Z,5.46
2022-08-25T10:45:05.622Z,5.14
2022-08-25T10:46:14.122Z,5.13
2022-08-25T10:47:20.564Z,5.13
2022-08-25T10:48:35.014Z,5.36
2022-08-25T10:49:42.397Z,5.20
2022-08-25T10:50:49.190Z,5.80
2022-08-25T10:51:55.726Z,5.09
2022-08-25T10:52:53.136Z,4.92
2022-08-25T10:53:56.364Z,5.25
2022-08-25T10:55:17.201Z,5.00
2022-08-25T10:56:14.602Z,4.98
2022-08-25T10:57:21.391Z,5.90
2022-08-25T10:58:24.852Z,5.28
2022-08-25T10:59:43.975Z,5.26
2022-08-25T11:00:49.264Z,5.51
2022-08-25T11:01:52.561Z,5.25
2022-08-25T11:02:54.004Z,5.53
2022-08-25T11:04:11.730Z,5.31
2022-08-25T11:05:15.207Z,5.84
2022-08-25T11:06:18.993Z,5.43
2022-08-25T11:07:18.298Z,5.35
2022-08-25T11:08:24.488Z,5.47
2022-08-25T11:09:27.597Z,5.45
2022-08-25T11:10:43.810Z,4.97
2022-08-25T11:11:50.257Z,5.25
2022-08-25T11:12:54.889Z,5.21
2022-08-25T11:13:53.085Z,5.20
2022-08-25T11:14:56.253Z,5.22
2022-08-25T11:16:16.441Z,5.36
2022-08-25T11:17:19.168Z,5.16
2022-08-25T11:18:16.794Z,5.26
2022-08-25T11:19:34.701Z,5.38
2022-08-25T11:20:36.394Z,5.59
2022-08-25T11:21:49.757Z,4.97
2022-08-25T11:23:06.845Z,5.73
2022-08-25T11:24:27.899Z,5.11
2022-08-25T11:25:25.624Z,5.30
2022-08-25T11:26:36.675Z,4.94
2022-08-25T11:27:45.309Z,5.02
2022-08-25T11:29:01.590Z,4.91
2022-08-25T11:30:05.990Z,4.82
2022-08-25T11:31:05.876Z,4.70
2022-08-25T11:32:04.722Z,4.87
2022-08-25T11:33:02.289Z,4.92
2022-08-25T11:33:59.894Z,4.95
2022-08-25T11:35:01.157Z,4.75
2022-08-25T11:35:59.655Z,4.81
2022-08-25T11:37:11.157Z,5.15
2022-08-25T11:38:23.096Z,5.11
2022-08-25T11:39:23.292Z,5.28
2022-08-25T11:40:33.581Z,4.90
2022-08-25T11:41:41.163Z,4.76
2022-08-25T11:42:38.569Z,4.46
2022-08-25T11:44:04.900Z,4.45
2022-08-25T11:45:08.518Z,4.61
2022-08-25T11:46:15.005Z,4.66
2022-08-25T11:47:21.057Z,4.61
2022-08-25T11:48:22.059Z,4.90
2022-08-25T11:49:21.839Z,4.52
2022-08-25T11:50:32.218Z,4.72
2022-08-25T11:51:33.685Z,5.71
2022-08-25T11:52:34.730Z,5.27
2022-08-25T11:53:37.911Z,5.34
2022-08-25T11:54:43.205Z,5.52
2022-08-25T11:55:40.513Z,5.23
2022-08-25T11:56:41.525Z,5.58
2022-08-25T11:57:39.758Z,5.38
2022-08-25T11:58:47.486Z,5.05
2022-08-25T11:59:50.181Z,4.88
2022-08-25T12:00:47.646Z,4.67
2022-08-25T12:01:47.607Z,5.09
2022-08-25T12:02:51.260Z,4.55
2022-08-25T12:03:51.032Z,4.45
2022-08-25T12:04:48.900Z,4.89
2022-08-25T12:05:52.904Z,4.77
2022-08-25T12:07:05.433Z,4.79
2022-08-25T12:08:24.912Z,5.08
2022-08-25T12:09:23.224Z,5.17
2022-08-25T12:10:25.534Z,4.80
2022-08-25T12:11:38.313Z,4.89
2022-08-25T12:12:35.778Z,4.42
2022-08-25T12:13:39.074Z,4.90
2022-08-25T12:14:42.120Z,4.79
2022-08-25T12:15:42.305Z,4.08
2022-08-25T12:16:43.571Z,4.45
2022-08-25T12:17:41.280Z,4.57
2022-08-25T12:18:46.037Z,5.09
2022-08-25T12:19:43.625Z,4.29
2022-08-25T12:20:53.234Z,4.16
2022-08-25T12:21:51.564Z,4.41
2022-08-25T12:22:55.344Z,4.39
2022-08-25T12:24:11.133Z,4.52
2022-08-25T12:25:14.434Z,4.63
2022-08-25T12:26:39.016Z,4.35
2022-08-25T12:27:36.330Z,4.49
2022-08-25T12:28:41.259Z,4.26
2022-08-25T12:30:07.975Z,4.29
2022-08-25T12:31:18.343Z,4.77
2022-08-25T12:32:22.611Z,4.43
2022-08-25T12:33:26.296Z,4.68
2022-08-25T12:34:26.810Z,4.24
2022-08-25T12:35:53.180Z,4.40
2022-08-25T12:37:06.434Z,4.41
2022-08-25T12:38:25.607Z,4.57
2022-08-25T12:39:29.383Z,4.75
2022-08-25T12:40:32.108Z,4.17
2022-08-25T12:41:33.698Z,4.39
2022-08-25T12:42:31.754Z,4.53
2022-08-25T12:43:37.589Z,4.45
2022-08-25T12:44:41.167Z,4.58
2022-08-25T12:45:41.018Z,4.53
2022-08-25T12:46:39.541Z,4.50
2022-08-25T12:47:37.780Z,4.32
2022-08-25T12:48:57.685Z,4.11
2022-08-25T12:50:14.963Z,4.72
2022-08-25T12:51:13.095Z,4.01
2022-08-25T12:52:14.473Z,4.16
2022-08-25T12:53:11.808Z,3.86
2022-08-25T12:54:12.408Z,4.31
2022-08-25T12:55:13.541Z,5.19
2022-08-25T12:56:17.627Z,5.10
2022-08-25T12:57:24.972Z,5.02
2022-08-25T12:58:56.523Z,4.64
2022-08-25T12:59:54.622Z,4.89
2022-08-25T13:01:17.551Z,4.80
2022-08-25T13:02:39.100Z,4.97
2022-08-25T13:05:03.265Z,4.75
2022-08-25T13:06:24.415Z,5.17
2022-08-25T13:07:33.630Z,5.06
2022-08-25T13:08:47.237Z,4.99
2022-08-25T13:10:17.626Z,5.07
2022-08-25T13:11:23.846Z,4.69
2022-08-25T13:12:32.424Z,4.76
2022-08-25T13:13:39.887Z,4.92
2022-08-25T13:14:39.071Z,5.04
2022-08-25T13:15:37.240Z,4.40
2022-08-25T13:16:35.190Z,4.78
2022-08-25T13:17:36.200Z,4.67
2022-08-25T13:18:36.417Z,5.03
2022-08-25T13:19:35.359Z,4.65
2022-08-25T13:20:33.288Z,5.06
2022-08-25T13:21:37.218Z,5.12
2022-08-25T13:22:35.682Z,5.22
2022-08-25T13:23:35.985Z,5.05
2022-08-25T13:24:41.174Z,4.96
2022-08-25T13:25:47.661Z,5.10
2022-08-25T13:26:49.834Z,5.21
2022-08-25T13:27:51.920Z,4.93
2022-08-25T13:29:12.234Z,4.71
2022-08-25T13:30:22.876Z,4.88
2022-08-25T13:31:28.217Z,4.83
2022-08-25T13:32:32.161Z,4.68
2022-08-25T13:33:30.085Z,4.95
2022-08-25T13:34:35.647Z,5.05
2022-08-25T13:35:33.264Z,4.55
2022-08-25T13:36:56.609Z,4.67
2022-08-25T13:38:12.072Z,5.11
2022-08-25T13:41:02.236Z,5.39
2022-08-25T13:42:01.244Z,5.10
2022-08-25T13:43:11.103Z,4.64
2022-08-25T13:44:13.097Z,4.84
2022-08-25T13:45:18.742Z,4.86
2022-08-25T13:46:19.504Z,5.08
2022-08-25T13:47:32.169Z,5.34
2022-08-25T13:48:37.465Z,4.64
2022-08-25T13:49:36.272Z,5.20
2022-08-25T13:50:36.811Z,5.13
2022-08-25T13:51:34.647Z,5.14
2022-08-25T13:52:33.526Z,4.96
2022-08-25T13:53:31.634Z,4.70
2022-08-25T13:54:36.014Z,4.95
2022-08-25T13:55:51.171Z,5.09
2022-08-25T13:56:49.395Z,4.84
2022-08-25T13:57:47.859Z,4.44
2022-08-25T13:58:46.444Z,4.65
2022-08-25T13:59:46.480Z,4.29
2022-08-25T14:00:49.386Z,4.29
2022-08-25T14:01:52.601Z,4.51
2022-08-25T14:02:51.863Z,4.48
2022-08-25T14:03:51.491Z,4.74
2022-08-25T14:04:51.559Z,4.61
2022-08-25T14:06:04.001Z,4.41
2022-08-25T14:07:19.432Z,4.60
2022-08-25T14:08:31.255Z,4.92
2022-08-25T14:09:36.375Z,4.63
2022-08-25T14:10:38.839Z,5.29
2022-08-25T14:11:47.941Z,4.96
2022-08-25T14:12:46.973Z,5.00
2022-08-25T14:13:45.413Z,4.81
2022-08-25T14:14:42.837Z,5.02
2022-08-25T14:15:40.872Z,4.72
2022-08-25T14:16:48.953Z,4.81
2022-08-25T14:17:49.612Z,4.66
2022-08-25T14:18:55.039Z,5.08
2022-08-25T14:19:57.276Z,4.75
2022-08-25T14:20:57.453Z,4.92
2022-08-25T14:21:59.082Z,4.75
2022-08-25T14:23:03.034Z,4.98
2022-08-25T14:24:02.947Z,4.88
2022-08-25T14:25:00.725Z,5.10
2022-08-25T14:25:58.632Z,5.06
2022-08-25T14:26:56.052Z,4.79
2022-08-25T14:28:10.940Z,5.62
2022-08-25T14:29:12.264Z,4.78
2022-08-25T14:30:09.956Z,4.27
2022-08-25T14:31:23.838Z,4.58
2022-08-25T14:32:22.787Z,4.73
2022-08-25T14:33:23.649Z,4.84
2022-08-25T14:34:24.051Z,4.59
2022-08-25T14:35:21.449Z,5.14
2022-08-25T14:36:20.985Z,5.22
2022-08-25T14:37:20.791Z,5.04
2022-08-25T14:38:23.862Z,5.61
2022-08-25T14:39:21.602Z,5.24
2022-08-25T14:40:20.013Z,5.42
2022-08-25T14:41:17.565Z,5.26
2022-08-25T14:42:15.595Z,5.07
2022-08-25T14:43:12.953Z,4.81
2022-08-25T14:44:10.688Z,5.01
2022-08-25T14:45:08.429Z,4.69
2022-08-25T14:46:11.222Z,4.67
2022-08-25T14:47:13.056Z,4.77
2022-08-25T14:48:37.060Z,5.09
2022-08-25T14:49:41.115Z,4.95
2022-08-25T14:50:41.175Z,5.11
2022-08-25T14:51:41.943Z,4.85
2022-08-25T14:52:42.128Z,4.39
2022-08-25T14:53:41.060Z,5.29
2022-08-25T14:54:38.459Z,5.44
2022-08-25T14:55:36.130Z,5.28
2022-08-25T14:56:34.562Z,5.19
2022-08-25T14:57:31.988Z,4.61
2022-08-25T14:58:33.968Z,4.65
2022-08-25T14:59:32.835Z,5.02
2022-08-25T15:00:30.549Z,5.13
2022-08-25T15:01:30.020Z,5.51
2022-08-25T15:02:30.671Z,5.67
2022-08-25T15:03:31.797Z,5.24
2022-08-25T15:04:30.215Z,5.44
2022-08-25T15:05:29.098Z,5.30
2022-08-25T15:06:28.510Z,5.51
2022-08-25T15:07:46.942Z,5.21
2022-08-25T15:09:03.244Z,5.86
2022-08-25T15:10:00.626Z,5.78
2022-08-25T15:10:58.111Z,5.27
2022-08-25T15:11:56.810Z,5.72
2022-08-25T15:12:54.860Z,5.73
2022-08-25T15:13:52.311Z,5.00
2022-08-25T15:14:50.065Z,5.34
2022-08-25T15:15:52.509Z,5.53
2022-08-25T15:16:55.571Z,5.56
2022-08-25T15:17:53.896Z,5.40
2022-08-25T15:18:54.737Z,5.22
2022-08-25T15:19:52.143Z,5.05
2022-08-25T15:20:50.347Z,5.55
2022-08-25T15:21:48.486Z,5.12
2022-08-25T15:22:45.925Z,5.28
2022-08-25T15:23:44.630Z,5.23
2022-08-25T15:24:42.169Z,5.42
2022-08-25T15:25:42.443Z,5.52
2022-08-25T15:26:43.317Z,5.76
2022-08-25T15:27:41.093Z,5.55
2022-08-25T15:28:42.070Z,5.60
2022-08-25T15:29:40.952Z,5.71
2022-08-25T15:30:41.031Z,5.61
2022-08-25T15:31:40.070Z,5.40
2022-08-25T15:32:37.538Z,5.58
2022-08-25T15:33:35.810Z,5.25
2022-08-25T15:34:33.967Z,5.34
2022-08-25T15:35:31.327Z,5.29
2022-08-25T15:36:29.065Z,5.15
2022-08-25T15:37:26.545Z,5.21
2022-08-25T15:38:24.871Z,5.25
2022-08-25T15:39:24.069Z,5.14
2022-08-25T15:40:21.978Z,5.38
2022-08-25T15:41:21.041Z,5.59
2022-08-25T15:42:22.441Z,5.71
2022-08-25T15:43:22.561Z,5.18
2022-08-25T15:44:20.221Z,4.84
2022-08-25T15:45:18.011Z,5.31
2022-08-25T15:46:18.923Z,5.57
2022-08-25T15:47:16.414Z,5.69
2022-08-25T15:48:14.593Z,5.35
2022-08-25T15:49:12.274Z,5.52
2022-08-25T15:50:14.503Z,5.01
2022-08-25T15:51:12.327Z,5.25
2022-08-25T15:52:10.162Z,5.66
2022-08-25T15:53:10.408Z,5.11
2022-08-25T15:54:08.150Z,5.20
2022-08-25T15:55:05.855Z,5.13
2022-08-25T15:56:07.168Z,5.19
2022-08-25T15:57:08.752Z,4.74
2022-08-25T15:58:06.797Z,4.86
2022-08-25T15:59:08.481Z,5.06
2022-08-25T16:00:07.924Z,4.93
2022-08-25T16:01:07.545Z,5.11
2022-08-25T16:02:06.838Z,5.40
2022-08-25T16:03:12.964Z,5.90
2022-08-25T16:04:11.223Z,5.18
2022-08-25T16:05:10.286Z,5.97
2022-08-25T16:06:08.460Z,5.06
2022-08-25T16:07:06.330Z,4.96
2022-08-25T16:08:06.173Z,5.60
2022-08-25T16:09:12.864Z,6.19
2022-08-25T16:10:10.522Z,6.04
2022-08-25T16:12:18.005Z,5.75
2022-08-25T16:13:15.838Z,5.89
2022-08-25T16:14:14.908Z,5.79
2022-08-25T16:15:13.230Z,5.78
2022-08-25T16:16:10.701Z,5.65
2022-08-25T16:17:08.111Z,5.22
2022-08-25T16:18:06.434Z,5.35
2022-08-25T16:19:06.751Z,5.58
2022-08-25T16:20:07.598Z,5.62
2022-08-25T16:21:12.910Z,5.57
2022-08-25T16:22:11.153Z,5.48
2022-08-25T16:23:08.900Z,5.41
2022-08-25T16:24:07.815Z,5.43
2022-08-25T16:25:05.531Z,5.35
2022-08-25T16:26:04.912Z,5.56
2022-08-25T16:27:11.628Z,6.28
2022-08-25T16:28:10.319Z,5.79
2022-08-25T16:29:09.732Z,5.85
2022-08-25T16:30:14.920Z,5.75
2022-08-25T16:31:16.734Z,5.40
2022-08-25T16:32:15.023Z,5.82
2022-08-25T16:33:14.580Z,5.78
2022-08-25T16:34:17.774Z,5.78
2022-08-25T16:35:16.392Z,5.26
2022-08-25T16:36:15.812Z,5.15
2022-08-25T16:37:13.619Z,5.39
2022-08-25T16:38:12.713Z,5.71
2022-08-25T16:39:11.402Z,5.76
2022-08-25T16:40:10.330Z,5.28
2022-08-25T16:41:09.497Z,5.66
2022-08-25T16:42:06.880Z,5.25
2022-08-25T16:43:04.301Z,5.63
2022-08-25T16:44:03.023Z,5.37
2022-08-25T16:45:00.546Z,5.48
2022-08-25T16:45:58.922Z,5.22
2022-08-25T16:46:58.684Z,5.82
2022-08-25T16:47:56.071Z,5.27
2022-08-25T16:48:53.437Z,6.28
2022-08-25T16:49:50.871Z,5.67
2022-08-25T16:50:49.140Z,5.52
2022-08-25T16:51:46.486Z,7.05
2022-08-25T16:53:08.172Z,5.47
2022-08-25T16:54:25.453Z,5.46
2022-08-25T16:55:23.034Z,5.59
2022-08-25T16:56:24.839Z,5.89
2022-08-25T16:57:24.698Z,5.81
2022-08-25T16:58:23.250Z,5.46
2022-08-25T16:59:21.657Z,5.35
2022-08-25T17:00:22.961Z,5.32
2022-08-25T17:01:22.134Z,5.31
2022-08-25T17:02:21.662Z,5.22
2022-08-25T17:03:19.704Z,5.29
2022-08-25T17:04:17.134Z,5.31
2022-08-25T17:05:15.350Z,5.54
2022-08-25T17:06:14.201Z,5.08
2022-08-25T17:07:12.509Z,4.94
2022-08-25T17:08:28.252Z,5.23
2022-08-25T17:09:25.646Z,5.49
2022-08-25T17:10:23.222Z,5.31
2022-08-25T17:11:26.611Z,5.19
2022-08-25T17:12:25.488Z,5.48
2022-08-25T17:13:22.815Z,5.22
2022-08-25T17:14:20.155Z,5.39
2022-08-25T17:15:22.466Z,5.22
2022-08-25T17:16:22.420Z,5.43
2022-08-25T17:17:20.360Z,5.91
2022-08-25T17:18:17.883Z,5.72
2022-08-25T17:19:16.225Z,5.55
2022-08-25T17:20:13.973Z,5.56
2022-08-25T17:21:16.184Z,5.10
2022-08-25T17:22:22.403Z,5.56
2022-08-25T17:23:21.304Z,5.54
2022-08-25T17:24:18.708Z,5.11
2022-08-25T17:25:16.122Z,5.50
2022-08-25T17:26:14.906Z,5.46
2022-08-25T17:27:12.982Z,5.36
2022-08-25T17:28:11.938Z,7.10
2022-08-25T17:29:10.904Z,6.10
2022-08-25T17:30:08.734Z,21.92
2022-08-25T17:31:07.017Z,14.48
2022-08-25T17:32:06.515Z,9.29
2022-08-25T17:33:04.311Z,8.56
2022-08-25T17:34:01.677Z,7.67
2022-08-25T17:34:59.528Z,6.06
2022-08-25T17:35:57.848Z,5.96
2022-08-25T17:36:56.028Z,6.29
2022-08-25T17:37:53.614Z,8.32
2022-08-25T17:38:52.303Z,8.27
2022-08-25T17:39:50.543Z,8.28
2022-08-25T17:40:55.912Z,10.23
2022-08-25T17:41:53.388Z,10.84
2022-08-25T17:42:51.771Z,10.61
2022-08-25T17:43:49.248Z,12.20
2022-08-25T17:44:46.641Z,12.43
2022-08-25T17:45:44.008Z,10.61
2022-08-25T17:46:47.579Z,9.62
2022-08-25T17:47:45.430Z,8.48
2022-08-25T17:48:43.702Z,7.76
2022-08-25T17:49:41.415Z,6.31
2022-08-25T17:50:39.382Z,6.38
2022-08-25T17:51:38.165Z,7.74
2022-08-25T17:52:36.839Z,8.17
2022-08-25T17:53:36.014Z,7.95
2022-08-25T17:54:34.137Z,7.57
2022-08-25T17:55:32.828Z,9.20
2022-08-25T17:56:31.685Z,9.23
2022-08-25T17:57:29.066Z,10.92
2022-08-25T17:58:27.116Z,10.45
2022-08-25T17:59:25.204Z,7.57
2022-08-25T18:00:23.729Z,6.84
2022-08-25T18:01:23.278Z,7.08
2022-08-25T18:02:21.321Z,7.10
2022-08-25T18:03:19.743Z,7.30
2022-08-25T18:04:19.444Z,6.31
2022-08-25T18:05:17.926Z,6.25
2022-08-25T18:06:16.173Z,6.23
2022-08-25T18:07:14.179Z,5.65
2022-08-25T18:08:14.585Z,5.85
2022-08-25T18:09:14.680Z,6.13
2022-08-25T18:10:14.758Z,5.68
2022-08-25T18:11:15.154Z,5.81
2022-08-25T18:12:17.090Z,5.85
2022-08-25T18:13:14.754Z,5.33
2022-08-25T18:14:13.920Z,6.12
2022-08-25T18:15:12.147Z,5.36
2022-08-25T18:16:12.919Z,5.41
2022-08-25T18:17:10.418Z,5.51
2022-08-25T18:18:08.370Z,5.60
2022-08-25T18:19:09.420Z,7.21
2022-08-25T18:20:08.773Z,5.61
2022-08-25T18:21:10.786Z,5.49
2022-08-25T18:22:08.411Z,5.18
2022-08-25T18:23:09.436Z,5.33
2022-08-25T18:24:07.970Z,5.24
2022-08-25T18:25:07.038Z,5.16
2022-08-25T18:26:04.922Z,5.75
2022-08-25T18:27:04.331Z,6.09
2022-08-25T18:28:04.217Z,5.99
2022-08-25T18:29:01.762Z,6.07
2022-08-25T18:29:59.420Z,5.68
2022-08-25T18:30:56.877Z,5.75
2022-08-25T18:31:58.331Z,5.93
2022-08-25T18:32:59.541Z,6.09
2022-08-25T18:33:57.492Z,5.32
2022-08-25T18:34:55.775Z,5.28
2022-08-25T18:35:53.225Z,5.83
2022-08-25T18:36:51.259Z,5.63
2022-08-25T18:38:08.437Z,5.39
2022-08-25T18:39:25.043Z,5.68
2022-08-25T18:40:25.523Z,5.31
2022-08-25T18:41:23.047Z,5.29
2022-08-25T18:42:20.606Z,5.08
2022-08-25T18:43:18.689Z,5.06
2022-08-25T18:44:16.125Z,4.72
2022-08-25T18:45:14.027Z,4.92
2022-08-25T18:46:11.481Z,5.42
2022-08-25T18:47:08.970Z,5.64
2022-08-25T18:48:07.054Z,5.50
2022-08-25T18:49:05.227Z,5.61
2022-08-25T18:50:05.194Z,4.75
2022-08-25T18:51:03.113Z,5.04
2022-08-25T18:52:01.415Z,4.83
2022-08-25T18:53:00.403Z,4.94
2022-08-25T18:54:01.149Z,4.92
2022-08-25T18:54:59.401Z,5.52
2022-08-25T18:55:58.151Z,5.69
2022-08-25T18:56:56.392Z,5.09
2022-08-25T18:57:54.751Z,5.40
2022-08-25T18:58:53.278Z,5.34
2022-08-25T18:59:50.923Z,5.29
2022-08-25T19:00:48.863Z,5.22
2022-08-25T19:01:46.512Z,5.09
2022-08-25T19:02:49.536Z,4.95
2022-08-25T19:03:48.967Z,5.05
2022-08-25T19:04:48.439Z,5.39
2022-08-25T19:05:49.341Z,5.22
2022-08-25T19:06:54.666Z,5.02
2022-08-25T19:07:53.428Z,4.59
2022-08-25T19:08:50.972Z,5.02
2022-08-25T19:09:48.356Z,5.15
2022-08-25T19:10:50.702Z,4.84
2022-08-25T19:11:48.755Z,4.72
2022-08-25T19:12:46.804Z,5.19
2022-08-25T19:13:45.098Z,5.39
2022-08-25T19:14:42.536Z,5.06
2022-08-25T19:15:41.167Z,4.71
2022-08-25T19:16:40.452Z,5.03
2022-08-25T19:17:38.332Z,4.73
2022-08-25T19:18:35.705Z,4.68
2022-08-25T19:19:33.101Z,5.22
2022-08-25T19:20:30.719Z,5.01
2022-08-25T19:21:28.434Z,5.46
2022-08-25T19:22:40.768Z,5.56
2022-08-25T19:23:39.036Z,5.41
2022-08-25T19:24:37.395Z,5.53
2022-08-25T19:25:37.994Z,5.31
2022-08-25T19:26:39.831Z,4.95
2022-08-25T19:27:39.750Z,4.99
2022-08-25T19:28:37.179Z,4.87
2022-08-25T19:29:34.685Z,5.06
2022-08-25T19:30:34.204Z,5.56
2022-08-25T19:31:33.271Z,4.78
2022-08-25T19:32:31.279Z,4.61
2022-08-25T19:33:37.698Z,4.96
2022-08-25T19:34:42.814Z,5.15
2022-08-25T19:35:44.161Z,4.81
2022-08-25T19:36:41.574Z,4.67
2022-08-25T19:37:39.344Z,4.93
2022-08-25T19:38:37.622Z,4.79
2022-08-25T19:39:36.375Z,4.94
2022-08-25T19:40:37.912Z,4.84
2022-08-25T19:41:36.309Z,4.79
2022-08-25T19:42:38.117Z,4.76
2022-08-25T19:43:36.073Z,4.82
2022-08-25T19:44:34.313Z,4.92
2022-08-25T19:45:32.825Z,5.06
2022-08-25T19:46:35.459Z,4.90
2022-08-25T19:47:33.486Z,4.89
2022-08-25T19:48:30.866Z,5.03
2022-08-25T19:49:32.798Z,4.84
2022-08-25T19:50:30.378Z,4.84
2022-08-25T19:51:29.202Z,4.51
2022-08-25T19:52:27.828Z,4.68
2022-08-25T19:53:26.236Z,4.97
2022-08-25T19:54:27.133Z,4.79
2022-08-25T19:55:24.934Z,4.74
2022-08-25T19:56:22.677Z,4.80
2022-08-25T19:57:28.266Z,4.68
2022-08-25T19:58:38.130Z,5.43
2022-08-25T19:59:43.233Z,5.24
2022-08-25T20:00:40.936Z,5.06
2022-08-25T20:01:38.997Z,4.37
2022-08-25T20:02:37.939Z,5.22
2022-08-25T20:03:35.373Z,5.72
2022-08-25T20:04:33.476Z,4.87
2022-08-25T20:05:32.124Z,4.86
2022-08-25T20:06:31.899Z,4.61
2022-08-25T20:07:31.369Z,5.05
2022-08-25T20:08:29.678Z,5.20
2022-08-25T20:09:38.878Z,5.11
2022-08-25T20:10:41.703Z,5.06
2022-08-25T20:11:43.217Z,4.88
2022-08-25T20:12:41.383Z,4.88
2022-08-25T20:13:38.870Z,4.85
2022-08-25T20:14:36.706Z,5.09
2022-08-25T20:15:34.472Z,5.37
2022-08-25T20:16:37.329Z,5.27
2022-08-25T20:17:34.708Z,5.23
2022-08-25T20:18:32.335Z,4.67
2022-08-25T20:19:30.529Z,5.22
2022-08-25T20:20:34.420Z,5.46
2022-08-25T20:21:32.823Z,5.75
2022-08-25T20:22:31.929Z,5.00
2022-08-25T20:23:47.729Z,5.13
2022-08-25T20:24:49.506Z,5.59
2022-08-25T20:25:48.523Z,5.67
2022-08-25T20:26:47.681Z,5.05
2022-08-25T20:27:47.219Z,5.35
2022-08-25T20:28:44.653Z,5.43
2022-08-25T20:29:41.981Z,5.34
2022-08-25T20:30:44.586Z,5.74
2022-08-25T20:31:43.744Z,5.95
2022-08-25T20:32:41.333Z,5.87
2022-08-25T20:33:40.987Z,5.50
2022-08-25T20:34:41.395Z,5.43
2022-08-25T20:35:38.817Z,5.74
2022-08-25T20:36:39.977Z,5.63
2022-08-25T20:37:48.783Z,5.37
2022-08-25T20:38:50.560Z,5.82
2022-08-25T20:39:48.152Z,5.83
2022-08-25T20:40:45.655Z,5.50
2022-08-25T20:41:43.138Z,5.63
2022-08-25T20:42:46.154Z,5.67
2022-08-25T20:43:44.112Z,5.16
2022-08-25T20:44:42.561Z,5.68
2022-08-25T20:45:39.979Z,5.55
2022-08-25T20:46:37.392Z,5.43
2022-08-25T20:47:36.254Z,5.84
2022-08-25T20:48:34.353Z,5.63
2022-08-25T20:49:37.667Z,5.85
2022-08-25T20:50:38.020Z,5.34
2022-08-25T20:51:35.437Z,5.02
2022-08-25T20:52:33.536Z,5.11
2022-08-25T20:53:34.332Z,5.53
2022-08-25T20:54:31.748Z,5.15
2022-08-25T20:55:29.893Z,4.97
2022-08-25T20:56:30.203Z,5.24
2022-08-25T20:57:27.607Z,5.17
2022-08-25T20:58:26.528Z,5.50
2022-08-25T20:59:26.047Z,4.95
2022-08-25T21:00:24.863Z,5.47
2022-08-25T21:01:37.533Z,5.51
2022-08-25T21:02:35.394Z,5.37
2022-08-25T21:03:32.822Z,5.09
2022-08-25T21:04:30.846Z,5.13
2022-08-25T21:05:28.493Z,4.84
2022-08-25T21:06:26.010Z,4.80
2022-08-25T21:07:23.886Z,5.20
2022-08-25T21:08:21.568Z,4.84
2022-08-25T21:09:22.984Z,4.84
2022-08-25T21:10:20.453Z,5.13
2022-08-25T21:11:18.203Z,5.30
2022-08-25T21:12:16.062Z,5.34
2022-08-25T21:13:13.415Z,5.59
2022-08-25T21:14:10.799Z,5.21
2022-08-25T21:15:08.630Z,5.12
2022-08-25T21:16:06.846Z,4.90
2022-08-25T21:17:05.111Z,4.86
2022-08-25T21:18:04.053Z,4.75
2022-08-25T21:19:01.592Z,4.58
2022-08-25T21:19:59.078Z,4.79
2022-08-25T21:20:56.416Z,5.01
2022-08-25T21:21:59.886Z,4.88
2022-08-25T21:22:57.616Z,4.73
2022-08-25T21:23:54.969Z,4.83
2022-08-25T21:24:52.328Z,4.61
2022-08-25T21:25:50.044Z,4.75
2022-08-25T21:26:49.847Z,4.89
2022-08-25T21:27:47.939Z,5.12
2022-08-25T21:28:47.849Z,5.19
2022-08-25T21:29:54.827Z,5.00